createdAt,value
2022-10-02T00:00:03.834Z,97805.38
2022-10-02T00:02:20.059Z,97807.06
2022-10-02T00:04:33.217Z,97818.06
2022-10-02T00:06:47.769Z,97818.06
2022-10-02T00:09:03.419Z,97817.97
2022-10-02T00:11:17.483Z,97808.16
2022-10-02T00:13:34.464Z,97807.19
2022-10-02T00:15:45.263Z,97806.56
2022-10-02T00:17:58.569Z,97817.31
2022-10-02T00:20:14.824Z,97822.66
2022-10-02T00:22:43.016Z,97821.38
2022-10-02T00:24:57.287Z,97815.31
2022-10-02T00:27:15.663Z,97809.88
2022-10-02T00:29:38.957Z,97814.22
2022-10-02T00:31:54.001Z,97831.19
2022-10-02T00:34:21.874Z,97826.50
2022-10-02T00:36:42.370Z,97823.38
2022-10-02T00:39:03.754Z,97833.56
2022-10-02T00:41:41.841Z,97829.91
2022-10-02T00:44:02.868Z,97838.88
2022-10-02T00:46:35.767Z,97835.00
2022-10-02T00:48:52.233Z,97840.25
2022-10-02T00:51:12.288Z,97830.66
2022-10-02T00:53:30.485Z,97817.31
2022-10-02T00:55:49.827Z,97822.53
2022-10-02T00:58:11.838Z,97823.63
2022-10-02T01:00:23.142Z,97828.72
2022-10-02T01:02:53.332Z,97825.13
2022-10-02T01:05:04.022Z,97824.78
2022-10-02T01:07:14.647Z,97822.03
2022-10-02T01:09:22.880Z,97828.84
2022-10-02T01:11:32.493Z,97830.56
2022-10-02T01:13:40.799Z,97849.53
2022-10-02T01:15:55.963Z,97840.69
2022-10-02T01:18:10.569Z,97837.91
2022-10-02T01:20:23.405Z,97844.63
2022-10-02T01:22:40.270Z,97843.47
2022-10-02T01:24:57.811Z,97842.81
2022-10-02T01:27:06.039Z,97829.06
2022-10-02T01:29:15.416Z,97837.06
2022-10-02T01:31:25.117Z,97827.13
2022-10-02T01:33:34.812Z,97825.53
2022-10-02T01:35:43.786Z,97826.50
2022-10-02T01:37:54.399Z,97830.56
2022-10-02T01:40:10.504Z,97834.19
2022-10-02T01:42:19.406Z,97829.59
2022-10-02T01:44:28.661Z,97836.00
2022-10-02T01:46:46.829Z,97828.41
2022-10-02T01:49:05.105Z,97829.38
2022-10-02T01:51:29.596Z,97828.63
2022-10-02T01:53:47.491Z,97837.25
2022-10-02T01:56:10.209Z,97845.69
2022-10-02T01:58:25.157Z,97851.31
2022-10-02T02:00:46.104Z,97851.84
2022-10-02T02:03:02.649Z,97855.00
2022-10-02T02:05:16.917Z,97865.75
2022-10-02T02:07:35.786Z,97859.56
2022-10-02T02:09:48.535Z,97857.88
2022-10-02T02:12:09.165Z,97857.66
2022-10-02T02:14:20.360Z,97858.53
2022-10-02T02:16:35.094Z,97858.53
2022-10-02T02:18:47.735Z,97866.59
2022-10-02T02:20:58.928Z,97869.06
2022-10-02T02:23:13.635Z,97880.28
2022-10-02T02:25:24.612Z,97879.72
2022-10-02T02:27:40.719Z,97878.56
2022-10-02T02:29:51.710Z,97871.19
2022-10-02T02:32:01.589Z,97876.50
2022-10-02T02:34:14.719Z,97879.63
2022-10-02T02:36:27.481Z,97872.34
2022-10-02T02:38:40.898Z,97877.69
2022-10-02T02:40:50.326Z,97884.72
2022-10-02T02:43:06.549Z,97878.34
2022-10-02T02:45:19.350Z,97876.72
2022-10-02T02:47:32.225Z,97879.38
2022-10-02T02:49:49.329Z,97863.38
2022-10-02T02:51:59.991Z,97870.09
2022-10-02T02:54:14.878Z,97870.53
2022-10-02T02:56:28.629Z,97882.38
2022-10-02T02:58:44.737Z,97882.38
2022-10-02T03:00:54.877Z,97881.53
2022-10-02T03:03:02.968Z,97885.78
2022-10-02T03:05:16.795Z,97885.38
2022-10-02T03:07:25.146Z,97886.22
2022-10-02T03:09:37.599Z,97885.91
2022-10-02T03:11:55.657Z,97895.47
2022-10-02T03:14:20.761Z,97898.28
2022-10-02T03:16:42.478Z,97900.09
2022-10-02T03:19:05.553Z,97900.53
2022-10-02T03:21:18.836Z,97900.66
2022-10-02T03:23:32.731Z,97887.19
2022-10-02T03:25:46.325Z,97884.72
2022-10-02T03:27:59.470Z,97887.31
2022-10-02T03:30:13.450Z,97886.22
2022-10-02T03:32:23.267Z,97882.59
2022-10-02T03:34:34.690Z,97881.97
2022-10-02T03:36:44.901Z,97886.78
2022-10-02T03:39:12.919Z,97884.00
2022-10-02T03:41:26.164Z,97884.72
2022-10-02T03:43:34.499Z,97880.34
2022-10-02T03:45:51.474Z,97890.38
2022-10-02T03:48:01.569Z,97883.47
2022-10-02T03:50:10.692Z,97883.03
2022-10-02T03:52:20.487Z,97889.44
2022-10-02T03:54:34.141Z,97877.03
2022-10-02T03:56:47.081Z,97868.63
2022-10-02T03:59:02.879Z,97868.19
2022-10-02T04:01:20.100Z,97877.28
2022-10-02T04:03:32.402Z,97879.31
2022-10-02T04:05:46.021Z,97871.94
2022-10-02T04:07:58.273Z,97874.28
2022-10-02T04:10:31.029Z,97870.00
2022-10-02T04:12:43.442Z,97870.97
2022-10-02T04:14:57.285Z,97874.72
2022-10-02T04:17:13.994Z,97873.00
2022-10-02T04:19:26.676Z,97880.78
2022-10-02T04:21:45.986Z,97882.72
2022-10-02T04:23:59.284Z,97877.03
2022-10-02T04:26:14.024Z,97883.34
2022-10-02T04:28:30.622Z,97887.94
2022-10-02T04:30:38.667Z,97893.16
2022-10-02T04:32:50.769Z,97897.13
2022-10-02T04:34:58.850Z,97900.66
2022-10-02T04:37:24.581Z,97902.22
2022-10-02T04:39:46.889Z,97907.88
2022-10-02T04:42:16.613Z,97915.75
2022-10-02T04:44:40.177Z,97910.34
2022-10-02T04:47:17.079Z,97903.31
2022-10-02T04:49:52.835Z,97905.53
2022-10-02T04:52:14.680Z,97913.84
2022-10-02T04:54:44.463Z,97903.84
2022-10-02T04:57:09.073Z,97910.88
2022-10-02T04:59:31.343Z,97895.72
2022-10-02T05:01:57.672Z,97891.78
2022-10-02T05:04:26.120Z,97893.47
2022-10-02T05:06:53.954Z,97890.09
2022-10-02T05:09:15.466Z,97887.41
2022-10-02T05:11:42.385Z,97892.63
2022-10-02T05:14:08.158Z,97881.97
2022-10-02T05:16:31.054Z,97877.69
2022-10-02T05:18:55.359Z,97874.81
2022-10-02T05:21:18.376Z,97875.97
2022-10-02T05:23:43.797Z,97879.72
2022-10-02T05:26:14.211Z,97878.88
2022-10-02T05:28:44.806Z,97866.28
2022-10-02T05:31:01.322Z,97868.94
2022-10-02T05:33:48.351Z,97871.00
2022-10-02T05:36:15.234Z,97878.78
2022-10-02T05:38:40.649Z,97877.06
2022-10-02T05:41:02.441Z,97880.69
2022-10-02T05:43:14.952Z,97880.16
2022-10-02T05:45:30.280Z,97878.34
2022-10-02T05:47:45.236Z,97880.78
2022-10-02T05:49:58.136Z,97877.47
2022-10-02T05:52:10.141Z,97881.00
2022-10-02T05:54:31.550Z,97879.94
2022-10-02T05:56:46.268Z,97877.72
2022-10-02T05:59:01.156Z,97874.59
2022-10-02T06:01:14.875Z,97875.97
2022-10-02T06:03:31.080Z,97884.97
2022-10-02T06:05:50.533Z,97887.50
2022-10-02T06:08:05.111Z,97897.66
2022-10-02T06:10:19.452Z,97905.53
2022-10-02T06:12:37.283Z,97897.31
2022-10-02T06:14:50.805Z,97899.34
2022-10-02T06:17:04.861Z,97902.75
2022-10-02T06:19:17.447Z,97900.41
2022-10-02T06:21:43.497Z,97914.41
2022-10-02T06:23:55.156Z,97913.97
2022-10-02T06:26:07.550Z,97909.25
2022-10-02T06:28:23.941Z,97906.69
2022-10-02T06:30:35.356Z,97911.81
2022-10-02T06:32:49.613Z,97899.44
2022-10-02T06:34:58.758Z,97897.63
2022-10-02T06:37:45.101Z,97894.38
2022-10-02T06:40:11.979Z,97892.81
2022-10-02T06:42:30.337Z,97881.28
2022-10-02T06:44:50.931Z,97864.19
2022-10-02T06:47:11.067Z,97864.50
2022-10-02T06:49:27.817Z,97859.94
2022-10-02T06:51:47.658Z,97862.81
2022-10-02T06:54:13.324Z,97848.50
2022-10-02T06:56:48.144Z,97843.06
2022-10-02T06:59:06.787Z,97843.94
2022-10-02T07:01:27.617Z,97844.69
2022-10-02T07:03:52.077Z,97846.41
2022-10-02T07:06:26.813Z,97841.97
2022-10-02T07:08:49.997Z,97833.09
2022-10-02T07:11:08.137Z,97823.19
2022-10-02T07:13:42.896Z,97818.91
2022-10-02T07:16:27.887Z,97803.91
2022-10-02T07:18:54.063Z,97805.72
2022-10-02T07:21:13.210Z,97797.47
2022-10-02T07:23:43.410Z,97797.16
2022-10-02T07:26:07.495Z,97784.47
2022-10-02T07:28:27.319Z,97780.09
2022-10-02T07:30:46.286Z,97784.91
2022-10-02T07:33:00.456Z,97774.66
2022-10-02T07:35:28.157Z,97771.56
2022-10-02T07:37:48.892Z,97761.50
2022-10-02T07:40:21.358Z,97767.03
2022-10-02T07:42:49.800Z,97776.41
2022-10-02T07:45:18.946Z,97777.69
2022-10-02T07:47:45.146Z,97774.81
2022-10-02T07:49:59.599Z,97790.78
2022-10-02T07:52:22.487Z,97781.25
2022-10-02T07:54:58.778Z,97784.63
2022-10-02T07:57:15.862Z,97790.38
2022-10-02T07:59:24.615Z,97790.66
2022-10-02T08:01:38.753Z,97784.25
2022-10-02T08:03:50.914Z,97797.53
2022-10-02T08:06:01.369Z,97810.22
2022-10-02T08:08:19.961Z,97797.75
2022-10-02T08:10:34.407Z,97796.34
2022-10-02T08:12:48.251Z,97797.25
2022-10-02T08:14:58.453Z,97809.06
2022-10-02T08:17:18.462Z,97820.63
2022-10-02T08:19:33.046Z,97834.72
2022-10-02T08:21:48.851Z,97836.56
2022-10-02T08:24:04.317Z,97843.44
2022-10-02T08:26:18.019Z,97845.22
2022-10-02T08:28:33.596Z,97867.00
2022-10-02T08:30:41.853Z,97861.16
2022-10-02T08:32:51.060Z,97868.53
2022-10-02T08:35:00.867Z,97866.16
2022-10-02T08:37:29.491Z,97866.88
2022-10-02T08:40:01.653Z,97854.38
2022-10-02T08:42:39.519Z,97863.13
2022-10-02T08:45:11.717Z,97853.97
2022-10-02T08:48:02.557Z,97858.03
2022-10-02T08:50:57.363Z,97866.53
2022-10-02T08:53:52.929Z,97864.22
2022-10-02T08:56:20.773Z,97867.13
2022-10-02T08:58:49.154Z,97869.09
2022-10-02T09:01:08.365Z,97860.22
2022-10-02T09:03:47.795Z,97845.09
2022-10-02T09:06:43.523Z,97853.25
2022-10-02T09:09:12.403Z,97840.38
2022-10-02T09:11:54.394Z,97838.88
2022-10-02T09:14:24.803Z,97832.41
2022-10-02T09:16:42.239Z,97832.59
2022-10-02T09:19:03.512Z,97824.09
2022-10-02T09:21:22.235Z,97807.69
2022-10-02T09:24:11.916Z,97811.19
2022-10-02T09:26:47.164Z,97809.47
2022-10-02T09:29:20.802Z,97804.13
2022-10-02T09:31:54.130Z,97805.28
2022-10-02T09:34:43.312Z,97814.13
2022-10-02T09:37:16.953Z,97820.09
2022-10-02T09:40:10.622Z,97820.66
2022-10-02T09:42:51.770Z,97818.81
2022-10-02T09:45:36.665Z,97806.28
2022-10-02T09:48:30.520Z,97811.97
2022-10-02T09:51:08.445Z,97806.94
2022-10-02T09:53:53.205Z,97809.44
2022-10-02T09:56:21.016Z,97806.06
2022-10-02T09:59:07.555Z,97808.56
2022-10-02T10:01:51.097Z,97813.69
2022-10-02T10:04:15.406Z,97816.66
2022-10-02T10:07:02.046Z,97817.00
2022-10-02T10:09:42.611Z,97808.03
2022-10-02T10:12:14.833Z,97811.38
2022-10-02T10:14:57.762Z,97829.16
2022-10-02T10:17:51.769Z,97810.59
2022-10-02T10:20:26.153Z,97813.34
2022-10-02T10:23:15.631Z,97833.09
2022-10-02T10:25:52.889Z,97838.91
2022-10-02T10:28:33.859Z,97842.00
2022-10-02T10:31:12.226Z,97830.84
2022-10-02T10:34:03.143Z,97826.72
2022-10-02T10:36:51.858Z,97830.47
2022-10-02T10:39:18.155Z,97819.38
2022-10-02T10:42:13.981Z,97820.47
2022-10-02T10:44:42.769Z,97817.88
2022-10-02T10:47:08.063Z,97830.00
2022-10-02T10:49:49.344Z,97832.69
2022-10-02T10:52:14.052Z,97829.09
2022-10-02T10:54:58.942Z,97852.19
2022-10-02T10:57:22.574Z,97843.38
2022-10-02T11:00:07.379Z,97837.03
2022-10-02T11:02:57.502Z,97847.16
2022-10-02T11:05:22.041Z,97850.47
2022-10-02T11:07:47.493Z,97854.31
2022-10-02T11:10:20.955Z,97839.09
2022-10-02T11:13:07.823Z,97844.88
2022-10-02T11:15:44.229Z,97858.91
2022-10-02T11:18:12.909Z,97868.69
2022-10-02T11:20:56.557Z,97869.78
2022-10-02T11:23:42.543Z,97867.66
2022-10-02T11:26:13.018Z,97866.44
2022-10-02T11:28:46.983Z,97875.78
2022-10-02T11:31:05.693Z,97871.28
2022-10-02T11:33:39.785Z,97867.88
2022-10-02T11:36:04.245Z,97872.66
2022-10-02T11:38:26.707Z,97864.91
2022-10-02T11:40:57.912Z,97863.53
2022-10-02T11:43:18.007Z,97868.44
2022-10-02T11:45:55.461Z,97863.47
2022-10-02T11:48:21.151Z,97862.28
2022-10-02T11:50:54.215Z,97852.06
2022-10-02T11:53:17.536Z,97858.75
2022-10-02T11:55:43.274Z,97860.09
2022-10-02T11:58:05.988Z,97859.84
2022-10-02T12:00:35.429Z,97856.69
2022-10-02T12:02:51.220Z,97849.38
2022-10-02T12:05:15.668Z,97856.69
2022-10-02T12:07:36.198Z,97853.75
2022-10-02T12:09:58.459Z,97857.34
2022-10-02T12:12:22.502Z,97840.25
2022-10-02T12:14:43.744Z,97832.34
2022-10-02T12:17:19.272Z,97818.25
2022-10-02T12:20:03.385Z,97815.34
2022-10-02T12:22:36.442Z,97814.88
2022-10-02T12:25:07.255Z,97819.13
2022-10-02T12:27:24.854Z,97828.59
2022-10-02T12:29:59.110Z,97820.19
2022-10-02T12:32:15.019Z,97827.25
2022-10-02T12:34:43.474Z,97823.25
2022-10-02T12:36:59.454Z,97833.69
2022-10-02T12:39:21.897Z,97830.25
2022-10-02T12:41:59.182Z,97827.53
2022-10-02T12:44:25.397Z,97826.50
2022-10-02T12:47:17.511Z,97806.94
2022-10-02T12:49:36.425Z,97795.59
2022-10-02T12:52:02.756Z,97814.56
2022-10-02T12:54:40.316Z,97812.38
2022-10-02T12:57:11.272Z,97807.88
2022-10-02T12:59:27.825Z,97825.50
2022-10-02T13:02:10.693Z,97832.06
2022-10-02T13:04:58.105Z,97823.16
2022-10-02T13:07:37.613Z,97802.63
2022-10-02T13:09:54.799Z,97816.16
2022-10-02T13:12:15.994Z,97809.59
2022-10-02T13:15:03.479Z,97817.75
2022-10-02T13:17:23.899Z,97809.94
2022-10-02T13:19:38.795Z,97812.03
2022-10-02T13:22:00.029Z,97808.59
2022-10-02T13:24:31.820Z,97805.72
2022-10-02T13:26:49.114Z,97811.66
2022-10-02T13:29:29.441Z,97811.44
2022-10-02T13:31:50.082Z,97814.34
2022-10-02T13:34:19.874Z,97818.47
2022-10-02T13:36:37.002Z,97832.81
2022-10-02T13:39:09.635Z,97819.75
2022-10-02T13:41:32.011Z,97828.75
2022-10-02T13:43:58.284Z,97824.06
2022-10-02T13:46:24.181Z,97811.31
2022-10-02T13:48:45.252Z,97819.25
2022-10-02T13:51:03.098Z,97830.75
2022-10-02T13:53:32.730Z,97846.91
2022-10-02T13:55:48.240Z,97855.69
2022-10-02T13:58:22.913Z,97850.88
2022-10-02T14:00:58.486Z,97871.53
2022-10-02T14:03:15.546Z,97869.72
2022-10-02T14:05:36.602Z,97877.31
2022-10-02T14:08:03.917Z,97876.63
2022-10-02T14:10:22.410Z,97874.06
2022-10-02T14:12:35.928Z,97870.91
2022-10-02T14:15:07.286Z,97869.72
2022-10-02T14:17:26.496Z,97875.16
2022-10-02T14:19:54.211Z,97869.94
2022-10-02T14:22:18.411Z,97858.53
2022-10-02T14:24:59.014Z,97864.22
2022-10-02T14:27:19.374Z,97865.81
2022-10-02T14:29:55.320Z,97861.91
2022-10-02T14:32:32.197Z,97856.91
2022-10-02T14:35:20.219Z,97852.03
2022-10-02T14:38:06.894Z,97853.44
2022-10-02T14:40:17.894Z,97830.72
2022-10-02T14:42:40.052Z,97830.59
2022-10-02T14:45:21.787Z,97827.56
2022-10-02T14:47:47.302Z,97828.69
2022-10-02T14:50:08.914Z,97834.53
2022-10-02T14:52:48.229Z,97833.97
2022-10-02T14:55:19.363Z,97835.38
2022-10-02T14:57:56.789Z,97834.69
2022-10-02T15:00:17.683Z,97827.72
2022-10-02T15:02:51.570Z,97837.69
2022-10-02T15:05:07.729Z,97841.78
2022-10-02T15:07:18.267Z,97851.78
2022-10-02T15:09:33.267Z,97855.63
2022-10-02T15:12:03.335Z,97853.34
2022-10-02T15:14:16.810Z,97855.47
2022-10-02T15:16:42.073Z,97849.84
2022-10-02T15:19:02.558Z,97856.44
2022-10-02T15:21:26.887Z,97861.91
2022-10-02T15:23:47.283Z,97869.28
2022-10-02T15:26:15.874Z,97870.84
2022-10-02T15:28:36.724Z,97868.50
2022-10-02T15:30:56.976Z,97877.03
2022-10-02T15:33:18.241Z,97871.91
2022-10-02T15:35:34.534Z,97874.47
2022-10-02T15:37:50.522Z,97883.34
2022-10-02T15:40:14.021Z,97887.31
2022-10-02T15:42:41.551Z,97896.28
2022-10-02T15:45:06.629Z,97890.72
2022-10-02T15:47:41.895Z,97893.50
2022-10-02T15:50:07.817Z,97895.03
2022-10-02T15:52:33.293Z,97884.00
2022-10-02T15:54:59.648Z,97885.97
2022-10-02T15:57:32.608Z,97878.38
2022-10-02T15:59:57.835Z,97870.03
2022-10-02T16:02:22.666Z,97864.19
2022-10-02T16:04:41.131Z,97858.63
2022-10-02T16:07:21.852Z,97857.47
2022-10-02T16:09:52.757Z,97863.13
2022-10-02T16:12:23.604Z,97866.06
2022-10-02T16:14:44.146Z,97875.38
2022-10-02T16:17:39.482Z,97876.66
2022-10-02T16:20:02.677Z,97871.41
2022-10-02T16:22:23.226Z,97875.06
2022-10-02T16:24:51.071Z,97871.53
2022-10-02T16:27:22.420Z,97879.34
2022-10-02T16:29:37.168Z,97878.06
2022-10-02T16:32:07.697Z,97880.84
2022-10-02T16:34:27.152Z,97876.47
2022-10-02T16:36:44.446Z,97879.59
2022-10-02T16:38:54.517Z,97867.88
2022-10-02T16:41:21.053Z,97872.22
2022-10-02T16:43:59.237Z,97868.06
2022-10-02T16:46:13.886Z,97860.63
2022-10-02T16:48:31.837Z,97867.75
2022-10-02T16:51:08.615Z,97863.38
2022-10-02T16:53:28.608Z,97873.66
2022-10-02T16:55:41.626Z,97873.44
2022-10-02T16:58:02.922Z,97869.38
2022-10-02T17:00:19.364Z,97881.97
2022-10-02T17:02:36.460Z,97893.38
2022-10-02T17:04:52.131Z,97907.88
2022-10-02T17:07:04.724Z,97919.72
2022-10-02T17:09:20.418Z,97923.66
2022-10-02T17:11:33.471Z,97935.19
2022-10-02T17:13:58.665Z,97943.97
2022-10-02T17:16:20.280Z,97949.81
2022-10-02T17:18:37.213Z,97950.03
2022-10-02T17:20:48.983Z,97943.72
2022-10-02T17:23:05.878Z,97941.06
2022-10-02T17:25:22.656Z,97946.63
2022-10-02T17:27:45.423Z,97947.38
2022-10-02T17:30:09.302Z,97948.22
2022-10-02T17:32:36.877Z,97943.84
2022-10-02T17:34:50.128Z,97952.94
2022-10-02T17:37:25.814Z,97948.53
2022-10-02T17:40:08.851Z,97959.13
2022-10-02T17:42:28.403Z,97955.16
2022-10-02T17:44:48.651Z,97950.25
2022-10-02T17:47:46.298Z,97949.56
2022-10-02T17:50:10.169Z,97957.19
2022-10-02T17:52:42.424Z,97961.03
2022-10-02T17:55:14.292Z,97965.91
2022-10-02T17:57:40.384Z,97970.25
2022-10-02T18:00:06.517Z,97975.72
2022-10-02T18:02:26.004Z,97978.38
2022-10-02T18:04:47.010Z,97981.97
2022-10-02T18:07:15.644Z,97979.41
2022-10-02T18:09:40.883Z,97981.22
2022-10-02T18:12:24.208Z,97975.72
2022-10-02T18:14:54.261Z,97984.56
2022-10-02T18:17:19.153Z,97979.97
2022-10-02T18:19:30.919Z,97978.16
2022-10-02T18:21:50.436Z,97989.78
2022-10-02T18:24:16.832Z,97986.25
2022-10-02T18:26:34.610Z,97984.88
2022-10-02T18:29:09.426Z,97987.31
2022-10-02T18:31:54.219Z,97974.75
2022-10-02T18:34:26.756Z,97979.41
2022-10-02T18:36:51.113Z,97981.53
2022-10-02T18:39:02.841Z,97980.56
2022-10-02T18:41:27.847Z,97986.88
2022-10-02T18:43:59.688Z,97995.28
2022-10-02T18:46:18.868Z,97992.09
2022-10-02T18:48:59.344Z,97989.59
2022-10-02T18:51:22.184Z,97998.25
2022-10-02T18:53:46.739Z,98004.25
2022-10-02T18:56:08.940Z,98013.53
2022-10-02T18:58:35.231Z,98022.50
2022-10-02T19:01:17.709Z,98021.66
2022-10-02T19:03:35.546Z,98034.19
2022-10-02T19:05:52.413Z,98029.19
2022-10-02T19:08:14.341Z,98042.47
2022-10-02T19:10:29.800Z,98051.53
2022-10-02T19:12:37.937Z,98054.84
2022-10-02T19:14:49.131Z,98069.97
2022-10-02T19:17:02.045Z,98053.88
2022-10-02T19:19:12.108Z,98045.25
2022-10-02T19:21:21.814Z,98034.47
2022-10-02T19:23:37.442Z,98030.66
2022-10-02T19:25:50.267Z,98019.72
2022-10-02T19:27:59.925Z,98013.91
2022-10-02T19:30:26.376Z,98032.13
2022-10-02T19:32:40.490Z,98035.94
2022-10-02T19:34:52.203Z,98043.03
2022-10-02T19:37:02.621Z,98046.53
2022-10-02T19:39:20.985Z,98039.28
2022-10-02T19:41:29.166Z,98044.38
2022-10-02T19:43:39.742Z,98045.44
2022-10-02T19:45:56.848Z,98044.59
2022-10-02T19:48:09.746Z,98053.41
2022-10-02T19:50:23.478Z,98048.94
2022-10-02T19:52:37.853Z,98052.69
2022-10-02T19:54:48.140Z,98054.47
2022-10-02T19:57:02.091Z,98063.56
2022-10-02T19:59:17.962Z,98066.34
2022-10-02T20:01:31.884Z,98071.38
2022-10-02T20:03:41.028Z,98064.34
2022-10-02T20:05:52.311Z,98075.56
2022-10-02T20:08:06.983Z,98079.75
2022-10-02T20:10:21.157Z,98081.44
2022-10-02T20:12:34.714Z,98086.84
2022-10-02T20:14:47.812Z,98084.19
2022-10-02T20:17:10.825Z,98084.97
2022-10-02T20:19:22.200Z,98084.66
2022-10-02T20:21:41.551Z,98087.22
2022-10-02T20:23:56.775Z,98095.66
2022-10-02T20:26:10.329Z,98087.03
2022-10-02T20:28:24.069Z,98086.38
2022-10-02T20:30:37.941Z,98095.50
2022-10-02T20:32:56.476Z,98100.38
2022-10-02T20:35:14.310Z,98102.75
2022-10-02T20:37:29.512Z,98103.66
2022-10-02T20:39:40.374Z,98109.97
2022-10-02T20:41:58.165Z,98107.28
2022-10-02T20:44:07.205Z,98118.63
2022-10-02T20:46:41.068Z,98125.84
2022-10-02T20:49:20.541Z,98139.72
2022-10-02T20:51:53.240Z,98146.53
2022-10-02T20:54:29.317Z,98154.31
2022-10-02T20:57:06.367Z,98153.81
2022-10-02T20:59:45.597Z,98163.94
2022-10-02T21:02:05.633Z,98165.63
2022-10-02T21:04:43.585Z,98172.78
2022-10-02T21:07:17.106Z,98175.63
2022-10-02T21:09:51.025Z,98174.13
2022-10-02T21:12:30.100Z,98177.16
2022-10-02T21:15:11.791Z,98184.41
2022-10-02T21:17:39.962Z,98195.63
2022-10-02T21:20:49.577Z,98188.78
2022-10-02T21:23:20.923Z,98205.06
2022-10-02T21:25:53.179Z,98206.47
2022-10-02T21:28:43.895Z,98211.91
2022-10-02T21:31:05.836Z,98218.88
2022-10-02T21:33:19.151Z,98216.00
2022-10-02T21:35:45.743Z,98212.59
2022-10-02T21:38:21.521Z,98210.88
2022-10-02T21:41:10.674Z,98209.81
2022-10-02T21:43:55.050Z,98216.97
2022-10-02T21:46:42.973Z,98213.63
2022-10-02T21:49:20.193Z,98207.81
2022-10-02T21:52:03.194Z,98216.22
2022-10-02T21:54:51.660Z,98221.81
2022-10-02T21:57:43.865Z,98229.91
2022-10-02T22:00:31.294Z,98224.94
2022-10-02T22:03:35.896Z,98229.91
2022-10-02T22:06:28.818Z,98233.78
2022-10-02T22:08:51.846Z,98232.88
2022-10-02T22:11:16.976Z,98229.44
2022-10-02T22:13:31.231Z,98226.97
2022-10-02T22:15:48.304Z,98226.66
2022-10-02T22:18:02.905Z,98232.88
2022-10-02T22:20:30.912Z,98228.56
2022-10-02T22:22:55.089Z,98227.53
2022-10-02T22:25:15.856Z,98239.03
2022-10-02T22:27:59.692Z,98232.47
2022-10-02T22:30:25.062Z,98237.22
2022-10-02T22:33:13.928Z,98244.16
2022-10-02T22:35:33.642Z,98247.19
2022-10-02T22:38:04.446Z,98242.22
2022-10-02T22:40:17.511Z,98244.69
2022-10-02T22:42:32.307Z,98248.69
2022-10-02T22:44:51.781Z,98253.16
2022-10-02T22:47:10.438Z,98246.38
2022-10-02T22:49:29.487Z,98245.69
2022-10-02T22:51:44.032Z,98252.06
2022-10-02T22:53:56.642Z,98260.22
2022-10-02T22:56:04.570Z,98251.50
2022-10-02T22:58:17.567Z,98253.63
2022-10-02T23:00:29.689Z,98254.09
2022-10-02T23:02:51.969Z,98258.47
2022-10-02T23:05:08.519Z,98253.72
2022-10-02T23:07:22.954Z,98258.56
2022-10-02T23:09:39.174Z,98265.69
2022-10-02T23:11:55.257Z,98269.63
2022-10-02T23:14:08.589Z,98270.31
2022-10-02T23:16:25.949Z,98270.06
2022-10-02T23:18:45.120Z,98271.78
2022-10-02T23:21:02.587Z,98265.75
2022-10-02T23:23:19.760Z,98262.94
2022-10-02T23:25:35.819Z,98269.69
2022-10-02T23:27:51.358Z,98264.38
2022-10-02T23:30:05.157Z,98260.97
2022-10-02T23:32:24.202Z,98264.53
2022-10-02T23:34:43.794Z,98261.13
2022-10-02T23:36:57.351Z,98264.84
2022-10-02T23:39:13.932Z,98268.75
2022-10-02T23:41:40.755Z,98266.66
2022-10-02T23:43:59.167Z,98271.25
2022-10-02T23:46:14.718Z,98279.28
2022-10-02T23:48:24.360Z,98278.53
2022-10-02T23:50:43.534Z,98272.19
2022-10-02T23:53:22.827Z,98268.38
2022-10-02T23:55:53.219Z,98266.28
2022-10-02T23:58:26.138Z,98267.31
